Longisland, North Carolina
Current Conditions -  °F | °C
As of 6:55 AM on Thursday 27 Nov 2014 (Local Time) from KSVH Reporting Station
Haze Haze  
Wind Chill: 39°   Ceiling: 100
Heat Index: 39°   Visibility: 1mi
Dew Point: 39°   Wind: 0mph
Humidity: 100%   Direction: NA
Pressure: 29.98"   Gusts: NA
Location:  35.6752°N, 81.0375°W
Report Text: KSVH 271155Z AUTO 00000KT 1SM BR OVC001 04/04 A2998 RMK AO2 60001 70049 T00370037 10049 20035
Loading
Personal Weather Stations






























Interactive Weather Map New forecast layout! Learn more

10-Day Weather Forecast

Advertisements
Track Severe Weather on mobile